createdAt,value
2023-01-12T00:01:57.969Z,0.38
2023-01-12T00:04:25.023Z,0.30
2023-01-12T00:06:51.940Z,0.40
2023-01-12T00:09:18.913Z,0.40
2023-01-12T00:11:45.720Z,0.30
2023-01-12T00:14:12.711Z,0.20
2023-01-12T00:16:40.770Z,0.20
2023-01-12T00:19:23.635Z,0.38
2023-01-12T00:22:00.418Z,0.20
2023-01-12T00:24:34.682Z,0.22
2023-01-12T00:27:05.211Z,0.35
2023-01-12T00:29:32.757Z,0.43
2023-01-12T00:32:00.866Z,0.20
2023-01-12T00:34:29.720Z,0.30
2023-01-12T00:36:58.058Z,0.30
2023-01-12T00:39:24.900Z,0.30
2023-01-12T00:42:10.641Z,0.30
2023-01-12T00:44:57.294Z,0.28
2023-01-12T00:47:24.246Z,0.32
2023-01-12T00:49:51.220Z,0.30
2023-01-12T00:52:30.440Z,0.17
2023-01-12T00:54:59.471Z,0.30
2023-01-12T00:57:26.533Z,0.20
2023-01-12T00:59:58.148Z,0.63
2023-01-12T01:02:26.164Z,0.30
2023-01-12T01:04:53.111Z,0.35
2023-01-12T01:07:21.676Z,0.22
2023-01-12T01:09:49.397Z,0.30
2023-01-12T01:12:16.570Z,0.30
2023-01-12T01:14:43.693Z,0.50
2023-01-12T01:17:11.126Z,0.50
2023-01-12T01:19:37.962Z,0.30
2023-01-12T01:22:04.781Z,0.30
2023-01-12T01:24:31.592Z,0.43
2023-01-12T01:26:58.514Z,0.70
2023-01-12T01:29:25.365Z,0.47
2023-01-12T01:31:55.478Z,0.47
2023-01-12T01:34:23.848Z,0.77
2023-01-12T01:36:50.797Z,0.50
2023-01-12T01:39:17.588Z,0.60
2023-01-12T01:41:44.507Z,0.77
2023-01-12T01:44:29.468Z,0.50
2023-01-12T01:47:23.647Z,0.60
2023-01-12T01:49:55.762Z,0.40
2023-01-12T01:52:38.946Z,0.40
2023-01-12T01:55:22.077Z,1.05
2023-01-12T01:58:00.662Z,1.02
2023-01-12T02:00:27.965Z,0.40
2023-01-12T02:02:55.821Z,0.45
2023-01-12T02:05:27.634Z,0.40
2023-01-12T02:07:55.653Z,0.75
2023-01-12T02:10:22.771Z,0.65
2023-01-12T02:13:09.557Z,0.32
2023-01-12T02:16:20.618Z,0.60
2023-01-12T02:22:29.599Z,0.35
2023-01-12T02:25:18.009Z,0.40
2023-01-12T02:27:59.076Z,0.80
2023-01-12T02:30:43.159Z,0.50
2023-01-12T02:33:44.144Z,0.43
2023-01-12T02:39:24.355Z,0.70
2023-01-12T02:42:27.721Z,0.28
2023-01-12T02:45:22.497Z,0.60
2023-01-12T02:47:59.372Z,0.30
2023-01-12T02:50:59.595Z,0.98
2023-01-12T02:54:01.489Z,0.70
2023-01-12T02:56:36.500Z,0.45
2023-01-12T02:59:11.090Z,0.50
2023-01-12T03:01:39.831Z,0.50
2023-01-12T03:04:11.796Z,0.40
2023-01-12T03:07:22.458Z,0.50
2023-01-12T03:10:13.663Z,0.40
2023-01-12T03:12:43.729Z,0.35
2023-01-12T03:15:14.133Z,0.25
2023-01-12T03:17:53.850Z,0.82
2023-01-12T03:20:32.834Z,0.50
2023-01-12T03:23:11.825Z,0.60
2023-01-12T03:25:44.320Z,0.50
2023-01-12T03:28:18.399Z,0.43
2023-01-12T03:31:00.452Z,0.40
2023-01-12T03:33:27.406Z,0.20
2023-01-12T03:36:32.638Z,0.47
2023-01-12T03:39:43.380Z,0.40
2023-01-12T03:42:17.332Z,0.50
2023-01-12T03:45:15.820Z,0.50
2023-01-12T03:47:44.478Z,0.50
2023-01-12T03:50:22.160Z,0.60
2023-01-12T03:52:50.583Z,0.35
2023-01-12T03:55:23.241Z,0.75
2023-01-12T03:57:52.567Z,0.43
2023-01-12T04:00:22.594Z,0.52
2023-01-12T04:02:49.393Z,0.70
2023-01-12T04:05:16.747Z,0.50
2023-01-12T04:07:43.548Z,0.70
2023-01-12T04:10:10.910Z,0.70
2023-01-12T04:12:37.784Z,0.57
2023-01-12T04:15:06.283Z,0.50
2023-01-12T04:17:33.571Z,0.60
2023-01-12T04:20:00.457Z,0.30
2023-01-12T04:22:45.328Z,0.90
2023-01-12T04:25:16.054Z,0.73
2023-01-12T04:28:03.797Z,0.30
2023-01-12T04:30:33.511Z,0.50
2023-01-12T04:33:06.775Z,0.60
2023-01-12T04:35:33.577Z,0.65
2023-01-12T04:38:07.179Z,0.60
2023-01-12T04:40:34.218Z,0.93
2023-01-12T04:43:01.073Z,0.32
2023-01-12T04:45:34.747Z,0.30
2023-01-12T04:48:10.879Z,0.60
2023-01-12T04:50:39.075Z,0.65
2023-01-12T04:53:09.384Z,0.50
2023-01-12T04:55:39.229Z,0.38
2023-01-12T04:58:06.971Z,0.30
2023-01-12T05:00:35.008Z,0.40
2023-01-12T05:03:02.658Z,0.40
2023-01-12T05:05:33.947Z,0.50
2023-01-12T05:08:22.458Z,0.35
2023-01-12T05:11:01.198Z,0.30
2023-01-12T05:13:31.130Z,0.28
2023-01-12T05:16:07.802Z,0.43
2023-01-12T05:18:34.604Z,0.40
2023-01-12T05:21:01.405Z,0.30
2023-01-12T05:23:28.200Z,0.40
2023-01-12T05:26:00.222Z,0.50
2023-01-12T05:28:29.462Z,0.40
2023-01-12T05:31:02.731Z,0.20
2023-01-12T05:33:29.673Z,0.50
2023-01-12T05:35:56.496Z,0.40
2023-01-12T05:38:23.757Z,0.38
2023-01-12T05:40:50.843Z,0.40
2023-01-12T05:43:36.441Z,0.40
2023-01-12T05:46:05.534Z,0.45
2023-01-12T05:48:32.908Z,0.40
2023-01-12T05:51:05.065Z,0.60
2023-01-12T05:53:32.194Z,0.38
2023-01-12T05:56:05.322Z,0.35
2023-01-12T05:58:32.117Z,0.47
2023-01-12T06:00:59.026Z,0.68
2023-01-12T06:03:27.785Z,0.40
2023-01-12T06:05:58.247Z,0.45
2023-01-12T06:08:25.595Z,0.55
2023-01-12T06:10:52.732Z,0.40
2023-01-12T06:13:38.253Z,0.52
2023-01-12T06:16:09.185Z,0.77
2023-01-12T06:18:40.403Z,0.32
2023-01-12T06:21:09.917Z,0.77
2023-01-12T06:23:37.032Z,0.50
2023-01-12T06:26:09.074Z,0.50
2023-01-12T06:28:39.840Z,0.40
2023-01-12T06:31:10.232Z,0.52
2023-01-12T06:33:37.431Z,0.88
2023-01-12T06:36:05.083Z,0.35
2023-01-12T06:38:34.156Z,0.35
2023-01-12T06:41:06.387Z,0.77
2023-01-12T06:43:33.318Z,0.30
2023-01-12T06:46:00.810Z,0.57
2023-01-12T06:48:38.640Z,0.50
2023-01-12T06:51:06.486Z,0.45
2023-01-12T06:53:33.356Z,0.52
2023-01-12T06:56:00.137Z,0.50
2023-01-12T06:58:27.119Z,0.50
2023-01-12T07:00:53.988Z,0.50
2023-01-12T07:03:20.912Z,0.35
2023-01-12T07:05:47.706Z,1.02
2023-01-12T07:08:19.049Z,0.45
2023-01-12T07:10:46.710Z,0.55
2023-01-12T07:13:13.669Z,0.40
2023-01-12T07:15:40.479Z,0.63
2023-01-12T07:18:07.720Z,0.47
2023-01-12T07:20:34.861Z,0.93
2023-01-12T07:23:01.873Z,0.35
2023-01-12T07:25:28.904Z,0.63
2023-01-12T07:27:58.061Z,0.40
2023-01-12T07:30:26.707Z,0.50
2023-01-12T07:32:54.103Z,0.70
2023-01-12T07:35:21.807Z,0.85
2023-01-12T07:37:56.553Z,0.93
2023-01-12T07:40:23.415Z,0.47
2023-01-12T07:42:59.677Z,0.60
2023-01-12T07:45:27.054Z,0.35
2023-01-12T07:47:55.377Z,0.40
2023-01-12T07:50:24.413Z,0.50
2023-01-12T07:52:51.943Z,0.40
2023-01-12T07:55:19.719Z,0.35
2023-01-12T07:57:58.448Z,0.40
2023-01-12T08:00:27.256Z,0.43
2023-01-12T08:02:58.993Z,0.82
2023-01-12T08:05:25.823Z,0.77
2023-01-12T08:07:52.723Z,0.47
2023-01-12T08:10:19.628Z,0.50
2023-01-12T08:12:46.529Z,0.38
2023-01-12T08:15:13.457Z,0.60
2023-01-12T08:17:56.861Z,0.57
2023-01-12T08:20:31.775Z,0.65
2023-01-12T08:23:08.033Z,0.38
2023-01-12T08:25:44.490Z,0.60
2023-01-12T08:28:20.952Z,0.50
2023-01-12T08:30:50.088Z,0.40
2023-01-12T08:33:17.452Z,0.50
2023-01-12T08:35:46.456Z,0.30
2023-01-12T08:38:13.813Z,0.40
2023-01-12T08:40:59.381Z,0.68
2023-01-12T08:43:44.773Z,0.43
2023-01-12T08:46:11.840Z,0.60
2023-01-12T08:48:39.819Z,0.55
2023-01-12T08:51:08.598Z,0.43
2023-01-12T08:53:35.771Z,0.30
2023-01-12T08:56:03.320Z,0.57
2023-01-12T08:58:31.939Z,0.43
2023-01-12T09:01:16.764Z,0.30
2023-01-12T09:03:44.480Z,0.50
2023-01-12T09:06:28.366Z,0.50
2023-01-12T09:09:01.946Z,0.45
2023-01-12T09:11:32.470Z,0.40
2023-01-12T09:13:59.360Z,0.30
2023-01-12T09:16:29.024Z,0.50
2023-01-12T09:18:56.664Z,0.60
2023-01-12T09:21:26.902Z,0.40
2023-01-12T09:23:54.822Z,1.00
2023-01-12T09:26:31.970Z,0.50
2023-01-12T09:29:04.298Z,0.50
2023-01-12T09:31:33.405Z,0.65
2023-01-12T09:34:00.619Z,0.60
2023-01-12T09:36:35.924Z,0.30
2023-01-12T09:39:04.585Z,0.35
2023-01-12T09:42:08.825Z,0.30
2023-01-12T09:45:02.849Z,0.73
2023-01-12T09:47:52.723Z,0.73
2023-01-12T09:50:29.121Z,0.43
2023-01-12T09:53:17.920Z,0.57
2023-01-12T09:56:01.667Z,0.40
2023-01-12T09:58:37.470Z,0.65
2023-01-12T10:01:20.492Z,0.68
2023-01-12T10:03:55.661Z,0.82
2023-01-12T10:06:22.702Z,0.50
2023-01-12T10:09:11.541Z,0.57
2023-01-12T10:12:15.338Z,0.63
2023-01-12T10:15:26.770Z,0.30
2023-01-12T10:18:39.214Z,0.50
2023-01-12T10:21:11.235Z,0.60
2023-01-12T10:23:46.336Z,0.50
2023-01-12T10:26:28.815Z,0.65
2023-01-12T10:28:56.313Z,0.30
2023-01-12T10:31:25.687Z,0.20
2023-01-12T10:34:08.270Z,0.32
2023-01-12T10:36:44.416Z,0.40
2023-01-12T10:39:44.340Z,0.60
2023-01-12T10:42:56.078Z,0.30
2023-01-12T10:45:24.655Z,0.45
2023-01-12T10:47:56.861Z,0.43
2023-01-12T10:50:35.203Z,0.30
2023-01-12T10:53:07.275Z,0.30
2023-01-12T10:55:39.879Z,0.35
2023-01-12T10:58:25.784Z,0.80
2023-01-12T11:00:54.111Z,0.40
2023-01-12T11:03:39.386Z,0.60
2023-01-12T11:06:30.816Z,0.93
2023-01-12T11:08:58.193Z,0.35
2023-01-12T11:11:33.448Z,0.30
2023-01-12T11:14:04.499Z,0.30
2023-01-12T11:16:38.995Z,0.20
2023-01-12T11:19:28.652Z,0.35
2023-01-12T11:22:09.845Z,0.30
2023-01-12T11:24:57.798Z,0.20
2023-01-12T11:27:55.602Z,0.30
2023-01-12T11:30:32.937Z,0.20
2023-01-12T11:33:19.193Z,0.30
2023-01-12T11:36:00.003Z,0.35
2023-01-12T11:38:42.571Z,0.35
2023-01-12T11:42:03.909Z,0.98
2023-01-12T11:44:42.212Z,0.30
2023-01-12T11:47:15.072Z,0.30
2023-01-12T11:49:51.417Z,0.40
2023-01-12T11:52:18.627Z,0.70
2023-01-12T11:54:45.588Z,0.50
2023-01-12T11:57:45.817Z,0.70
2023-01-12T12:01:00.760Z,0.40
2023-01-12T12:03:56.994Z,0.90
2023-01-12T12:06:56.361Z,0.82
2023-01-12T12:09:58.705Z,0.68
2023-01-12T12:12:46.808Z,0.28
2023-01-12T12:16:06.046Z,0.40
2023-01-12T12:19:16.233Z,0.40
2023-01-12T12:22:05.383Z,0.53
2023-01-12T12:25:22.749Z,0.90
2023-01-12T12:28:31.590Z,0.22
2023-01-12T12:31:21.220Z,0.40
2023-01-12T12:34:20.613Z,0.20
2023-01-12T12:37:13.216Z,0.38
2023-01-12T12:40:02.067Z,0.20
2023-01-12T12:43:08.975Z,0.25
2023-01-12T12:45:56.819Z,0.30
2023-01-12T12:48:45.294Z,0.20
2023-01-12T12:51:14.760Z,0.40
2023-01-12T12:53:52.217Z,0.30
2023-01-12T12:56:24.324Z,0.20
2023-01-12T12:58:53.773Z,0.30
2023-01-12T13:01:23.484Z,0.20
2023-01-12T13:04:04.484Z,0.20
2023-01-12T13:09:14.256Z,0.40
2023-01-12T13:11:54.762Z,0.22
2023-01-12T13:14:42.044Z,0.60
2023-01-12T13:17:21.147Z,0.50
2023-01-12T13:19:51.820Z,0.68
2023-01-12T13:22:32.502Z,0.32
2023-01-12T13:25:23.839Z,0.30
2023-01-12T13:28:02.604Z,0.30
2023-01-12T13:30:29.711Z,0.30
2023-01-12T13:33:17.493Z,0.20
2023-01-12T13:35:44.470Z,0.38
2023-01-12T13:38:33.116Z,0.50
2023-01-12T13:41:53.564Z,0.40
2023-01-12T13:44:34.429Z,0.40
2023-01-12T13:49:50.930Z,0.38
2023-01-12T13:52:32.146Z,0.30
2023-01-12T13:54:59.997Z,0.40
2023-01-12T13:57:30.686Z,0.70
2023-01-12T14:00:09.160Z,0.40
2023-01-12T14:02:38.613Z,0.20
2023-01-12T14:05:32.107Z,0.50
2023-01-12T14:08:39.597Z,0.40
2023-01-12T14:11:38.427Z,0.35
2023-01-12T14:15:09.331Z,0.73
2023-01-12T14:17:57.750Z,0.43
2023-01-12T14:20:28.959Z,0.30
2023-01-12T14:23:15.747Z,0.50
2023-01-12T14:25:47.079Z,0.20
2023-01-12T14:28:31.420Z,0.20
2023-01-12T14:30:58.780Z,0.20
2023-01-12T14:33:30.259Z,0.20
2023-01-12T14:36:08.169Z,0.20
2023-01-12T14:38:39.837Z,0.32
2023-01-12T14:41:31.013Z,0.50
2023-01-12T14:44:16.551Z,1.00
2023-01-12T14:46:54.557Z,0.63
2023-01-12T14:49:29.616Z,0.32
2023-01-12T14:51:59.670Z,0.40
2023-01-12T14:54:33.825Z,0.30
2023-01-12T14:57:07.987Z,0.30
2023-01-12T14:59:44.359Z,0.30
2023-01-12T15:02:13.925Z,0.55
2023-01-12T15:05:10.324Z,0.28
2023-01-12T15:07:39.487Z,0.35
2023-01-12T15:10:09.066Z,0.40
2023-01-12T15:12:42.862Z,0.30
2023-01-12T15:15:19.978Z,0.47
2023-01-12T15:18:07.164Z,0.20
2023-01-12T15:21:00.279Z,0.32
2023-01-12T15:23:53.369Z,0.30
2023-01-12T15:26:22.987Z,0.30
2023-01-12T15:28:50.088Z,0.20
2023-01-12T15:31:25.418Z,0.22
2023-01-12T15:33:52.593Z,0.35
2023-01-12T15:36:20.878Z,0.20
2023-01-12T15:38:47.808Z,0.30
2023-01-12T15:41:41.377Z,0.38
2023-01-12T15:44:19.867Z,0.28
2023-01-12T15:46:47.554Z,0.25
2023-01-12T15:49:15.446Z,0.93
2023-01-12T15:51:47.497Z,1.02
2023-01-12T15:54:16.619Z,0.88
2023-01-12T15:56:43.608Z,0.40
2023-01-12T15:59:10.516Z,0.40
2023-01-12T16:01:45.524Z,0.40
2023-01-12T16:07:05.949Z,0.20
2023-01-12T16:09:32.806Z,0.47
2023-01-12T16:11:59.627Z,0.20
2023-01-12T16:14:26.413Z,0.40
2023-01-12T16:16:53.284Z,0.30
2023-01-12T16:19:22.328Z,0.43
2023-01-12T16:21:49.423Z,0.30
2023-01-12T16:24:16.310Z,0.45
2023-01-12T16:26:43.785Z,0.22
2023-01-12T16:29:10.729Z,0.20
2023-01-12T16:31:39.384Z,0.40
2023-01-12T16:34:06.739Z,0.30
2023-01-12T16:36:34.563Z,0.47
2023-01-12T16:39:01.705Z,0.77
2023-01-12T16:41:28.609Z,0.32
2023-01-12T16:43:58.348Z,0.40
2023-01-12T16:46:25.173Z,0.30
2023-01-12T16:48:55.185Z,0.30
2023-01-12T16:51:22.841Z,0.30
2023-01-12T16:53:51.373Z,0.30
2023-01-12T16:56:18.243Z,0.30
2023-01-12T16:58:48.509Z,0.30
2023-01-12T17:01:22.417Z,0.50
2023-01-12T17:03:50.968Z,1.00
2023-01-12T17:06:21.200Z,0.65
2023-01-12T17:08:48.739Z,0.90
2023-01-12T17:11:21.145Z,0.45
2023-01-12T17:13:53.185Z,0.70
2023-01-12T17:16:23.130Z,0.60
2023-01-12T17:18:51.139Z,0.60
2023-01-12T17:21:20.177Z,0.60
2023-01-12T17:23:47.854Z,0.40
2023-01-12T17:26:18.274Z,0.55
2023-01-12T17:28:46.825Z,0.40
2023-01-12T17:31:20.422Z,0.90
2023-01-12T17:33:47.485Z,0.77
2023-01-12T17:36:15.047Z,0.40
2023-01-12T17:38:42.013Z,0.30
2023-01-12T17:41:34.179Z,3.70
2023-01-12T17:44:05.493Z,1.80
2023-01-12T17:46:34.018Z,1.45
2023-01-12T17:49:05.154Z,0.82
2023-01-12T17:54:02.124Z,0.60
2023-01-12T17:56:31.494Z,0.60
2023-01-12T17:58:58.805Z,0.25
2023-01-12T18:01:29.738Z,0.52
2023-01-12T18:03:59.077Z,0.45
2023-01-12T18:06:27.190Z,0.38
2023-01-12T18:08:56.686Z,0.40
2023-01-12T18:11:24.337Z,0.70
2023-01-12T18:13:51.558Z,0.40
2023-01-12T18:16:18.649Z,0.70
2023-01-12T18:18:46.138Z,1.00
2023-01-12T18:21:18.392Z,0.45
2023-01-12T18:23:45.267Z,0.60
2023-01-12T18:26:17.852Z,0.40
2023-01-12T18:28:45.705Z,0.30
2023-01-12T18:31:16.866Z,0.60
2023-01-12T18:33:45.316Z,0.50
2023-01-12T18:36:19.882Z,0.47
2023-01-12T18:38:49.339Z,0.40
2023-01-12T18:41:35.707Z,0.50
2023-01-12T18:44:06.073Z,0.40
2023-01-12T18:46:53.774Z,0.45
2023-01-12T18:49:22.915Z,0.68
2023-01-12T18:52:28.503Z,0.30
2023-01-12T18:54:55.373Z,0.50
2023-01-12T18:57:25.803Z,0.30
2023-01-12T18:59:57.767Z,0.30
2023-01-12T19:02:24.734Z,0.38
2023-01-12T19:04:51.976Z,0.52
2023-01-12T19:07:31.296Z,0.43
2023-01-12T19:10:00.291Z,0.80
2023-01-12T19:12:27.738Z,0.43
2023-01-12T19:15:13.232Z,0.30
2023-01-12T19:17:41.998Z,0.20
2023-01-12T19:20:14.932Z,0.93
2023-01-12T19:23:01.126Z,0.77
2023-01-12T19:25:47.285Z,0.30
2023-01-12T19:28:35.128Z,0.50
2023-01-12T19:31:11.459Z,0.40
2023-01-12T19:33:39.627Z,0.85
2023-01-12T19:36:10.283Z,0.77
2023-01-12T19:38:37.651Z,0.70
2023-01-12T19:41:13.135Z,1.00
2023-01-12T19:43:45.895Z,0.70
2023-01-12T19:46:13.228Z,0.73
2023-01-12T19:48:40.297Z,1.15
2023-01-12T19:51:10.997Z,1.63
2023-01-12T19:56:11.950Z,0.82
2023-01-12T19:58:39.264Z,0.65
2023-01-12T20:01:06.510Z,0.73
2023-01-12T20:03:33.549Z,0.70
2023-01-12T20:06:06.734Z,0.95
2023-01-12T20:08:33.886Z,1.17
2023-01-12T20:11:04.002Z,1.30
2023-01-12T20:13:32.809Z,1.70
2023-01-12T20:16:04.642Z,1.25
2023-01-12T20:18:31.611Z,1.65
2023-01-12T20:21:00.487Z,2.60
2023-01-12T20:23:27.489Z,1.80
2023-01-12T20:25:54.406Z,1.20
2023-01-12T20:28:21.350Z,0.80
2023-01-12T20:30:48.210Z,0.60
2023-01-12T20:33:15.406Z,0.50
2023-01-12T20:35:48.008Z,0.50
2023-01-12T20:38:16.880Z,1.25
2023-01-12T20:40:46.137Z,0.75
2023-01-12T20:43:13.568Z,1.73
2023-01-12T20:45:42.952Z,6.25
2023-01-12T20:48:13.675Z,5.47
2023-01-12T20:53:15.525Z,2.75
2023-01-12T20:55:45.496Z,3.50
2023-01-12T20:58:12.857Z,2.77
2023-01-12T21:00:40.501Z,1.88
2023-01-12T21:03:08.716Z,2.05
2023-01-12T21:05:40.072Z,2.50
2023-01-12T21:08:08.375Z,2.75
2023-01-12T21:10:37.573Z,2.70
2023-01-12T21:13:05.595Z,2.95
2023-01-12T21:15:32.708Z,2.30
2023-01-12T21:17:59.698Z,2.67
2023-01-12T21:20:26.577Z,1.77
2023-01-12T21:22:53.387Z,1.63
2023-01-12T21:25:20.266Z,1.30
2023-01-12T21:27:47.111Z,1.30
2023-01-12T21:30:14.100Z,1.48
2023-01-12T21:32:43.418Z,1.35
2023-01-12T21:35:10.407Z,1.13
2023-01-12T21:37:37.311Z,1.40
2023-01-12T21:40:05.178Z,1.00
2023-01-12T21:42:50.650Z,0.80
2023-01-12T21:45:18.309Z,0.90
2023-01-12T21:47:46.412Z,0.70
2023-01-12T21:50:13.549Z,1.15
2023-01-12T21:52:41.579Z,0.85
2023-01-12T21:55:11.275Z,1.38
2023-01-12T21:57:38.246Z,1.20
2023-01-12T22:00:06.681Z,0.90
2023-01-12T22:02:36.057Z,0.75
2023-01-12T22:05:03.039Z,1.08
2023-01-12T22:07:30.766Z,1.20
2023-01-12T22:10:17.663Z,0.98
2023-01-12T22:12:55.750Z,1.00
2023-01-12T22:15:24.351Z,0.60
2023-01-12T22:17:52.609Z,0.70
2023-01-12T22:20:20.555Z,0.88
2023-01-12T22:22:47.599Z,0.70
2023-01-12T22:25:16.518Z,0.70
2023-01-12T22:27:43.560Z,0.80
2023-01-12T22:30:14.451Z,0.95
2023-01-12T22:32:41.564Z,0.73
2023-01-12T22:35:10.160Z,0.90
2023-01-12T22:37:38.959Z,0.88
2023-01-12T22:40:09.715Z,0.85
2023-01-12T22:45:22.032Z,0.60
2023-01-12T22:47:53.699Z,0.63
2023-01-12T22:50:20.895Z,0.95
2023-01-12T22:52:52.825Z,0.70
2023-01-12T22:55:22.226Z,0.80
2023-01-12T22:57:49.466Z,0.85
2023-01-12T23:00:17.919Z,0.63
2023-01-12T23:03:00.141Z,0.45
2023-01-12T23:05:45.734Z,0.55
2023-01-12T23:08:13.746Z,0.52
2023-01-12T23:10:42.672Z,0.50
2023-01-12T23:13:18.916Z,0.60
2023-01-12T23:15:55.509Z,0.40
2023-01-12T23:18:29.287Z,0.47
2023-01-12T23:21:15.407Z,0.50
2023-01-12T23:23:51.713Z,0.57
2023-01-12T23:26:23.859Z,0.50
2023-01-12T23:28:57.439Z,0.70
2023-01-12T23:31:29.256Z,0.60
2023-01-12T23:33:57.056Z,0.60
2023-01-12T23:36:28.104Z,0.50
2023-01-12T23:38:58.042Z,0.55
2023-01-12T23:41:27.645Z,0.57
2023-01-12T23:43:57.780Z,0.50
2023-01-12T23:46:25.081Z,0.70
2023-01-12T23:48:54.723Z,0.40
2023-01-12T23:51:24.307Z,0.45
2023-01-12T23:54:00.735Z,0.57
2023-01-12T23:56:33.100Z,0.70
2023-01-12T23:58:59.974Z,0.70
